createdAt,value
2022-11-25T00:01:44.955Z,33.94
2022-11-25T00:03:49.419Z,33.9
2022-11-25T00:05:53.770Z,33.92
2022-11-25T00:07:58.365Z,33.86
2022-11-25T00:10:02.754Z,33.95
2022-11-25T00:12:07.088Z,33.91
2022-11-25T00:14:11.507Z,33.85
2022-11-25T00:16:16.095Z,33.81
2022-11-25T00:18:20.514Z,33.76
2022-11-25T00:20:24.892Z,33.7
2022-11-25T00:22:29.216Z,33.83
2022-11-25T00:24:33.933Z,33.78
2022-11-25T00:26:38.410Z,33.84
2022-11-25T00:28:42.779Z,33.76
2022-11-25T00:30:47.132Z,33.75
2022-11-25T00:32:51.598Z,33.75
2022-11-25T00:34:55.973Z,33.8
2022-11-25T00:37:00.358Z,33.84
2022-11-25T00:39:04.700Z,33.86
2022-11-25T00:41:09.064Z,33.83
2022-11-25T00:43:13.396Z,33.85
2022-11-25T00:45:17.756Z,34.07
2022-11-25T00:47:22.126Z,33.94
2022-11-25T00:49:26.507Z,33.89
2022-11-25T00:51:30.870Z,33.96
2022-11-25T00:53:35.210Z,34.01
2022-11-25T00:55:39.554Z,34.48
2022-11-25T00:57:43.913Z,34.47
2022-11-25T00:59:48.256Z,34.26
2022-11-25T01:01:52.829Z,34.11
2022-11-25T01:03:57.210Z,34.16
2022-11-25T01:06:01.598Z,34.06
2022-11-25T01:08:05.923Z,34.22
2022-11-25T01:10:10.323Z,34.39
2022-11-25T01:12:14.692Z,34.33
2022-11-25T01:14:19.055Z,34.18
2022-11-25T01:16:23.608Z,34.19
2022-11-25T01:18:27.992Z,34.4
2022-11-25T01:20:32.335Z,34.37
2022-11-25T01:22:36.735Z,34.52
2022-11-25T01:24:41.269Z,34.39
2022-11-25T01:26:45.622Z,34.37
2022-11-25T01:28:49.965Z,34.35
2022-11-25T01:30:54.445Z,34.37
2022-11-25T01:32:58.796Z,34.41
2022-11-25T01:35:03.154Z,34.43
2022-11-25T01:37:07.530Z,34.54
2022-11-25T01:39:11.921Z,34.69
2022-11-25T01:41:16.276Z,34.68
2022-11-25T01:43:20.653Z,34.85
2022-11-25T01:45:30.066Z,34.84
2022-11-25T01:47:34.420Z,34.82
2022-11-25T01:49:38.911Z,34.72
2022-11-25T01:51:43.323Z,34.75
2022-11-25T01:53:47.677Z,34.77
2022-11-25T01:55:52.086Z,34.87
2022-11-25T01:57:56.460Z,34.8
2022-11-25T02:00:00.871Z,34.78
2022-11-25T02:02:05.623Z,34.8
2022-11-25T02:04:10.099Z,34.85
2022-11-25T02:06:14.536Z,34.95
2022-11-25T02:08:18.944Z,35.07
2022-11-25T02:10:23.364Z,34.94
2022-11-25T02:12:27.778Z,34.95
2022-11-25T02:14:32.211Z,35.17
2022-11-25T02:16:36.968Z,35.13
2022-11-25T02:18:41.434Z,35.11
2022-11-25T02:20:45.837Z,34.98
2022-11-25T02:22:50.252Z,34.98
2022-11-25T02:24:54.706Z,34.83
2022-11-25T02:26:59.148Z,34.84
2022-11-25T02:29:03.648Z,34.88
2022-11-25T02:31:08.073Z,34.95
2022-11-25T02:33:12.433Z,35.23
2022-11-25T02:35:16.801Z,35.22
2022-11-25T02:37:21.183Z,35.12
2022-11-25T02:39:25.519Z,35.09
2022-11-25T02:41:29.868Z,35.1
2022-11-25T02:43:34.280Z,34.93
2022-11-25T02:45:38.921Z,34.98
2022-11-25T02:47:43.303Z,34.99
2022-11-25T02:49:47.645Z,35.17
2022-11-25T02:51:51.978Z,35.2
2022-11-25T02:53:56.349Z,35.14
2022-11-25T02:56:00.707Z,35.13
2022-11-25T02:58:05.075Z,35.18
2022-11-25T03:00:09.576Z,35.11
2022-11-25T03:02:14.219Z,35.18
2022-11-25T03:04:18.647Z,35.24
2022-11-25T03:06:23.002Z,35.11
2022-11-25T03:08:27.389Z,35.03
2022-11-25T03:10:31.791Z,35.14
2022-11-25T03:12:36.155Z,35.11
2022-11-25T03:14:40.553Z,35.12
2022-11-25T03:16:45.273Z,35.15
2022-11-25T03:18:49.711Z,35.11
2022-11-25T03:20:54.078Z,35.22
2022-11-25T03:22:58.405Z,35.26
2022-11-25T03:25:02.818Z,35.3
2022-11-25T03:27:07.189Z,35.4
2022-11-25T03:29:11.577Z,35.19
2022-11-25T03:31:16.252Z,35.19
2022-11-25T03:33:20.688Z,35.07
2022-11-25T03:35:25.074Z,35.11
2022-11-25T03:37:29.547Z,35.13
2022-11-25T03:39:33.878Z,35.04
2022-11-25T03:41:38.241Z,35.07
2022-11-25T03:43:42.610Z,35.1
2022-11-25T03:45:47.307Z,35.21
2022-11-25T03:47:51.670Z,35.2
2022-11-25T03:49:56.044Z,35.14
2022-11-25T03:52:00.416Z,35.17
2022-11-25T03:54:04.793Z,35.2
2022-11-25T03:56:09.155Z,35.31
2022-11-25T03:58:13.805Z,35.47
2022-11-25T04:00:18.179Z,35.2
2022-11-25T04:02:22.770Z,35.18
2022-11-25T04:04:27.143Z,35.24
2022-11-25T04:06:31.508Z,35.2
2022-11-25T04:08:35.845Z,35.2
2022-11-25T04:10:40.225Z,35.23
2022-11-25T04:12:44.553Z,35.45
2022-11-25T04:14:49.031Z,35.3
2022-11-25T04:16:53.860Z,35.44
2022-11-25T04:18:58.295Z,35.5
2022-11-25T04:21:02.633Z,35.28
2022-11-25T04:23:07.009Z,35.37
2022-11-25T04:25:11.351Z,35.32
2022-11-25T04:27:15.687Z,35.43
2022-11-25T04:29:20.047Z,35.52
2022-11-25T04:31:24.392Z,35.38
2022-11-25T04:33:28.762Z,35.52
2022-11-25T04:35:33.097Z,35.48
2022-11-25T04:37:37.454Z,35.54
2022-11-25T04:39:41.842Z,35.68
2022-11-25T04:41:46.237Z,35.55
2022-11-25T04:43:50.613Z,35.59
2022-11-25T04:46:25.176Z,35.62
2022-11-25T04:48:29.538Z,35.65
2022-11-25T04:50:33.898Z,35.75
2022-11-25T04:52:38.244Z,35.68
2022-11-25T04:54:42.583Z,35.61
2022-11-25T04:56:46.956Z,35.6
2022-11-25T04:58:51.304Z,35.85
2022-11-25T05:00:55.869Z,35.83
2022-11-25T05:03:00.261Z,35.86
2022-11-25T05:05:04.641Z,35.79
2022-11-25T05:07:09.135Z,35.71
2022-11-25T05:09:13.497Z,35.66
2022-11-25T05:11:17.863Z,35.73
2022-11-25T05:13:22.221Z,35.71
2022-11-25T05:15:26.589Z,35.87
2022-11-25T05:17:30.987Z,35.97
2022-11-25T05:19:35.317Z,36.04
2022-11-25T05:21:39.682Z,36.24
2022-11-25T05:23:44.014Z,36.05
2022-11-25T05:25:48.348Z,36.28
2022-11-25T05:27:52.713Z,36.27
2022-11-25T05:29:58.323Z,36.09
2022-11-25T05:32:02.669Z,36.28
2022-11-25T05:34:07.110Z,36.28
2022-11-25T05:36:11.451Z,36.1
2022-11-25T05:38:15.786Z,36.53
2022-11-25T05:40:20.160Z,36.79
2022-11-25T05:42:24.535Z,37
2022-11-25T05:44:28.881Z,36.78
2022-11-25T05:46:33.616Z,37.24
2022-11-25T05:48:38.132Z,37.32
2022-11-25T05:50:42.502Z,37.58
2022-11-25T05:52:46.898Z,37.61
2022-11-25T05:54:58.658Z,37.65
2022-11-25T05:57:03.025Z,37.58
2022-11-25T05:59:07.414Z,37.56
2022-11-25T06:01:11.788Z,37.64
2022-11-25T06:03:16.716Z,37.27
2022-11-25T06:05:21.167Z,37.5
2022-11-25T06:07:25.815Z,37.69
2022-11-25T06:09:30.206Z,37.56
2022-11-25T06:11:34.574Z,37.61
2022-11-25T06:13:38.920Z,38.02
2022-11-25T06:15:43.483Z,38.13
2022-11-25T06:17:47.840Z,38.37
2022-11-25T06:19:52.211Z,38.35
2022-11-25T06:21:56.646Z,38.49
2022-11-25T06:24:01.008Z,38.07
2022-11-25T06:26:05.375Z,38.08
2022-11-25T06:28:17.193Z,38.17
2022-11-25T06:30:21.723Z,38.28
2022-11-25T06:32:26.113Z,38.12
2022-11-25T06:34:30.455Z,37.98
2022-11-25T06:36:34.795Z,38.07
2022-11-25T06:38:39.178Z,38.14
2022-11-25T06:40:43.572Z,38.21
2022-11-25T06:42:48.122Z,38.25
2022-11-25T06:44:52.483Z,38.25
2022-11-25T06:46:57.146Z,38.37
2022-11-25T06:49:01.576Z,38.2
2022-11-25T06:51:05.942Z,38.29
2022-11-25T06:53:10.289Z,38.43
2022-11-25T06:55:14.601Z,38.61
2022-11-25T06:57:18.978Z,38.44
2022-11-25T06:59:23.366Z,38.53
2022-11-25T07:01:27.990Z,38.43
2022-11-25T07:03:32.529Z,38.84
2022-11-25T07:05:36.894Z,38.77
2022-11-25T07:07:41.463Z,38.84
2022-11-25T07:09:45.885Z,38.83
2022-11-25T07:11:50.273Z,38.72
2022-11-25T07:13:54.629Z,38.83
2022-11-25T07:15:59.211Z,38.94
2022-11-25T07:18:03.579Z,38.9
2022-11-25T07:20:07.989Z,39.02
2022-11-25T07:22:12.371Z,39.06
2022-11-25T07:24:16.773Z,38.93
2022-11-25T07:26:21.126Z,38.73
2022-11-25T07:28:25.506Z,39
2022-11-25T07:31:32.381Z,39.17
2022-11-25T07:33:37.866Z,39.43
2022-11-25T07:35:42.250Z,39.29
2022-11-25T07:37:46.741Z,39.29
2022-11-25T07:39:51.116Z,39.35
2022-11-25T07:41:55.452Z,39.47
2022-11-25T07:43:59.866Z,39.44
2022-11-25T07:46:04.400Z,39.55
2022-11-25T07:48:08.832Z,39.5
2022-11-25T07:50:13.189Z,39.28
2022-11-25T07:52:17.530Z,39.56
2022-11-25T07:54:21.912Z,39.75
2022-11-25T07:56:26.264Z,39.76
2022-11-25T07:58:30.683Z,39.83
2022-11-25T08:00:35.080Z,40.02
2022-11-25T08:02:39.808Z,40.05
2022-11-25T08:04:44.237Z,39.75
2022-11-25T08:06:48.628Z,39.93
2022-11-25T08:08:53.024Z,39.89
2022-11-25T08:10:57.442Z,39.94
2022-11-25T08:13:01.821Z,39.85
2022-11-25T08:15:06.265Z,39.97
2022-11-25T08:17:10.668Z,39.92
2022-11-25T08:19:15.155Z,40.11
2022-11-25T08:21:19.557Z,39.84
2022-11-25T08:23:23.963Z,39.93
2022-11-25T08:25:28.412Z,39.93
2022-11-25T08:27:32.777Z,40.06
2022-11-25T08:29:38.569Z,40.1
2022-11-25T08:31:43.548Z,40.35
2022-11-25T08:33:48.210Z,40.42
2022-11-25T08:35:52.620Z,40.37
2022-11-25T08:37:57.010Z,40.5
2022-11-25T08:40:02.531Z,40.44
2022-11-25T08:42:06.925Z,40.32
2022-11-25T08:44:11.291Z,40.68
2022-11-25T08:46:16.079Z,40.58
2022-11-25T08:48:20.810Z,40.72
2022-11-25T08:50:25.344Z,40.67
2022-11-25T08:52:29.754Z,40.74
2022-11-25T08:54:34.266Z,40.86
2022-11-25T08:56:38.636Z,40.91
2022-11-25T08:58:43.042Z,41.01
2022-11-25T09:00:47.497Z,40.93
2022-11-25T09:02:52.196Z,40.77
2022-11-25T09:04:56.600Z,40.83
2022-11-25T09:07:01.195Z,41.11
2022-11-25T09:09:05.556Z,40.9
2022-11-25T09:11:10.134Z,41.21
2022-11-25T09:13:14.528Z,41.16
2022-11-25T09:15:18.893Z,41.23
2022-11-25T09:17:23.305Z,41.28
2022-11-25T09:19:27.648Z,41.15
2022-11-25T09:21:32.036Z,41.19
2022-11-25T09:23:36.427Z,41.28
2022-11-25T09:25:40.826Z,41.11
2022-11-25T09:27:45.280Z,41.28
2022-11-25T09:29:49.653Z,41.27
2022-11-25T09:31:57.322Z,41.41
2022-11-25T09:34:01.743Z,41.35
2022-11-25T09:36:06.139Z,41.5
2022-11-25T09:38:10.588Z,41.17
2022-11-25T09:40:15.020Z,41.42
2022-11-25T09:42:19.485Z,41.55
2022-11-25T09:44:23.823Z,41.71
2022-11-25T09:46:28.493Z,41.73
2022-11-25T09:48:32.923Z,41.53
2022-11-25T09:50:37.302Z,41.67
2022-11-25T09:52:41.824Z,41.8
2022-11-25T09:54:46.210Z,41.62
2022-11-25T09:56:50.595Z,41.38
2022-11-25T09:58:54.968Z,41.53
2022-11-25T10:00:59.410Z,41.54
2022-11-25T10:03:04.285Z,41.86
2022-11-25T10:05:08.730Z,41.63
2022-11-25T10:07:13.096Z,41.37
2022-11-25T10:09:17.449Z,41.33
2022-11-25T10:11:21.848Z,41.78
2022-11-25T10:13:26.261Z,41.64
2022-11-25T10:15:30.661Z,39.85
2022-11-25T10:17:35.050Z,39.6
2022-11-25T10:19:40.524Z,41.04
2022-11-25T10:21:44.911Z,41.87
2022-11-25T10:23:49.316Z,41.32
2022-11-25T10:25:53.690Z,40.98
2022-11-25T10:27:58.021Z,42.03
2022-11-25T10:30:02.405Z,41.75
2022-11-25T10:32:06.775Z,40.73
2022-11-25T10:34:11.247Z,41.1
2022-11-25T10:36:15.716Z,41.96
2022-11-25T10:38:21.313Z,41.71
2022-11-25T10:40:25.773Z,41.26
2022-11-25T10:42:30.191Z,42.72
2022-11-25T10:44:35.052Z,42.64
2022-11-25T10:47:15.934Z,42.39
2022-11-25T10:49:20.868Z,42.64
2022-11-25T10:51:25.258Z,42.86
2022-11-25T10:53:29.599Z,42.9
2022-11-25T10:55:34.129Z,44.2
2022-11-25T10:57:38.655Z,43.52
2022-11-25T10:59:43.027Z,42.87
2022-11-25T11:01:47.743Z,42.99
2022-11-25T11:03:52.131Z,42.9
2022-11-25T11:05:56.571Z,43.46
2022-11-25T11:08:01.160Z,42.71
2022-11-25T11:10:05.516Z,42.56
2022-11-25T11:12:09.911Z,42.34
2022-11-25T11:14:14.279Z,42.34
2022-11-25T11:16:18.882Z,42.26
2022-11-25T11:18:23.467Z,42.12
2022-11-25T11:20:27.869Z,42.35
2022-11-25T11:22:32.251Z,42.26
2022-11-25T11:24:38.013Z,42.8
2022-11-25T11:26:42.693Z,42.36
2022-11-25T11:29:27.373Z,42.69
2022-11-25T11:31:31.974Z,42.36
2022-11-25T11:33:36.361Z,42.36
2022-11-25T11:35:43.961Z,42.24
2022-11-25T11:37:48.356Z,42.08
2022-11-25T11:39:52.700Z,41.86
2022-11-25T11:41:57.044Z,42.05
2022-11-25T11:44:01.469Z,41.97
2022-11-25T11:46:05.836Z,41.83
2022-11-25T11:48:10.257Z,41.86
2022-11-25T11:50:14.729Z,41.75
2022-11-25T11:52:19.135Z,41.75
2022-11-25T11:54:23.559Z,41.92
2022-11-25T11:56:43.370Z,41.8
2022-11-25T11:58:47.748Z,41.49
2022-11-25T12:00:52.092Z,42.19
2022-11-25T12:02:56.747Z,42.33
2022-11-25T12:05:01.195Z,42.23
2022-11-25T12:07:05.583Z,42.54
2022-11-25T12:09:10.038Z,42.05
2022-11-25T12:11:14.450Z,42.12
2022-11-25T12:13:18.783Z,42.15
2022-11-25T12:15:23.214Z,42.17
2022-11-25T12:17:27.570Z,42.13
2022-11-25T12:19:31.969Z,42.17
2022-11-25T12:21:43.284Z,42.12
2022-11-25T12:23:47.681Z,42.11
2022-11-25T12:25:52.078Z,42.27
2022-11-25T12:27:56.441Z,42.17
2022-11-25T12:30:00.831Z,41.99
2022-11-25T12:32:05.631Z,42.1
2022-11-25T12:34:10.069Z,42.12
2022-11-25T12:36:14.461Z,42.26
2022-11-25T12:38:18.860Z,42.24
2022-11-25T12:40:23.290Z,42.25
2022-11-25T12:42:27.693Z,42.28
2022-11-25T12:44:32.079Z,42.24
2022-11-25T12:46:36.451Z,42.53
2022-11-25T12:48:40.866Z,42.46
2022-11-25T12:50:45.273Z,42.66
2022-11-25T12:52:49.710Z,42.08
2022-11-25T12:54:54.096Z,42.42
2022-11-25T12:56:58.501Z,42.36
2022-11-25T12:59:03.284Z,42.4
2022-11-25T13:01:08.249Z,42.43
2022-11-25T13:03:16.023Z,42.28
2022-11-25T13:05:42.459Z,42.29
2022-11-25T13:07:47.089Z,42.14
2022-11-25T13:09:51.555Z,42.32
2022-11-25T13:11:57.033Z,42.16
2022-11-25T13:14:02.887Z,42.25
2022-11-25T13:16:09.214Z,41.9
2022-11-25T13:18:14.126Z,41.95
2022-11-25T13:20:18.614Z,42.18
2022-11-25T13:22:23.070Z,41.92
2022-11-25T13:24:27.441Z,42.23
2022-11-25T13:26:31.816Z,42.05
2022-11-25T13:28:36.242Z,42.12
2022-11-25T13:30:40.648Z,41.97
2022-11-25T13:32:45.065Z,42.06
2022-11-25T13:34:49.468Z,41.88
2022-11-25T13:36:53.871Z,41.76
2022-11-25T13:38:58.289Z,41.93
2022-11-25T13:41:02.640Z,42.02
2022-11-25T13:43:07.046Z,41.96
2022-11-25T13:45:11.412Z,41.98
2022-11-25T13:47:15.845Z,41.89
2022-11-25T13:49:20.239Z,41.86
2022-11-25T13:51:24.717Z,41.86
2022-11-25T13:53:29.211Z,41.71
2022-11-25T13:55:33.621Z,41.62
2022-11-25T13:57:38.009Z,41.69
2022-11-25T13:59:42.435Z,41.68
2022-11-25T14:01:47.078Z,41.71
2022-11-25T14:03:51.545Z,41.8
2022-11-25T14:05:55.901Z,41.71
2022-11-25T14:08:00.521Z,41.89
2022-11-25T14:10:04.916Z,41.84
2022-11-25T14:12:09.266Z,41.77
2022-11-25T14:14:13.687Z,42.41
2022-11-25T14:16:18.324Z,42.35
2022-11-25T14:19:49.937Z,42.28
2022-11-25T14:21:55.205Z,42.49
2022-11-25T14:23:59.591Z,42.72
2022-11-25T14:26:48.547Z,42.62
2022-11-25T14:28:53.668Z,42.58
2022-11-25T14:30:58.059Z,42.77
2022-11-25T14:33:02.452Z,42.31
2022-11-25T14:35:06.862Z,42.3
2022-11-25T14:37:11.255Z,42.12
2022-11-25T14:39:15.663Z,42.79
2022-11-25T14:41:20.038Z,42.86
2022-11-25T14:43:24.421Z,42.74
2022-11-25T14:45:29.020Z,42.95
2022-11-25T14:47:40.375Z,43.22
2022-11-25T14:50:34.055Z,43.41
2022-11-25T14:52:39.342Z,43.52
2022-11-25T14:54:43.779Z,43.27
2022-11-25T14:56:48.153Z,43
2022-11-25T14:58:52.532Z,43.14
2022-11-25T15:00:56.907Z,43.23
2022-11-25T15:03:01.317Z,42.63
2022-11-25T15:05:05.705Z,43
2022-11-25T15:07:10.275Z,42.93
2022-11-25T15:09:14.686Z,42.86
2022-11-25T15:11:19.083Z,43.04
2022-11-25T15:13:23.478Z,42.92
2022-11-25T15:15:27.860Z,43.09
2022-11-25T15:17:32.349Z,43
2022-11-25T15:19:38.817Z,42.56
2022-11-25T15:22:25.670Z,42.81
2022-11-25T15:24:30.079Z,42.84
2022-11-25T15:26:34.450Z,42.44
2022-11-25T15:28:38.861Z,42.59
2022-11-25T15:30:43.247Z,42.16
2022-11-25T15:32:47.649Z,42.21
2022-11-25T15:34:52.118Z,42.21
2022-11-25T15:36:56.841Z,42.49
2022-11-25T15:39:01.347Z,42.58
2022-11-25T15:41:05.763Z,42.71
2022-11-25T15:43:10.156Z,42.14
2022-11-25T15:45:14.517Z,42.17
2022-11-25T15:47:18.914Z,41.83
2022-11-25T15:49:23.301Z,42.23
2022-11-25T15:51:27.692Z,42.15
2022-11-25T15:53:35.436Z,42.07
2022-11-25T15:55:39.803Z,42.05
2022-11-25T15:57:44.145Z,42.09
2022-11-25T15:59:48.537Z,42.35
2022-11-25T16:01:53.295Z,41.96
2022-11-25T16:03:57.796Z,42.45
2022-11-25T16:06:02.148Z,42.63
2022-11-25T16:08:06.520Z,43.43
2022-11-25T16:10:10.943Z,43.48
2022-11-25T16:12:15.597Z,44.12
2022-11-25T16:14:20.008Z,43.58
2022-11-25T16:16:24.669Z,43.47
2022-11-25T16:18:42.896Z,43.45
2022-11-25T16:20:47.338Z,43.51
2022-11-25T16:22:53.586Z,43.77
2022-11-25T16:25:04.163Z,43.74
2022-11-25T16:27:09.061Z,43.33
2022-11-25T16:29:13.470Z,43.68
2022-11-25T16:31:18.173Z,43.61
2022-11-25T16:33:22.665Z,43.35
2022-11-25T16:35:27.039Z,43.42
2022-11-25T16:37:31.445Z,43.33
2022-11-25T16:39:36.731Z,42.95
2022-11-25T16:41:41.285Z,42.53
2022-11-25T16:43:45.651Z,42.66
2022-11-25T16:45:50.257Z,42.71
2022-11-25T16:47:54.579Z,42.92
2022-11-25T16:49:58.957Z,42.87
2022-11-25T16:52:03.367Z,42.91
2022-11-25T16:54:07.786Z,42.98
2022-11-25T16:56:12.216Z,42.81
2022-11-25T16:58:16.611Z,42.68
2022-11-25T17:00:20.949Z,42.6
2022-11-25T17:02:26.112Z,42.8
2022-11-25T17:04:30.604Z,42.72
2022-11-25T17:06:35.033Z,42.72
2022-11-25T17:08:39.422Z,42.72
2022-11-25T17:10:43.776Z,42.85
2022-11-25T17:12:48.197Z,42.81
2022-11-25T17:14:53.139Z,42.9
2022-11-25T17:16:57.929Z,42.84
2022-11-25T17:19:02.779Z,42.76
2022-11-25T17:21:07.220Z,43.45
2022-11-25T17:23:11.699Z,43.72
2022-11-25T17:25:16.144Z,43.42
2022-11-25T17:27:20.508Z,42.78
2022-11-25T17:29:24.977Z,42.6
2022-11-25T17:31:29.516Z,43.19
2022-11-25T17:33:33.962Z,43.08
2022-11-25T17:35:38.370Z,42.97
2022-11-25T17:37:42.746Z,43.48
2022-11-25T17:39:47.162Z,43.37
2022-11-25T17:41:51.543Z,43.27
2022-11-25T17:43:56.126Z,43.26
2022-11-25T17:46:01.001Z,43.23
2022-11-25T17:48:05.450Z,42.94
2022-11-25T17:50:09.850Z,42.6
2022-11-25T17:52:14.225Z,42.64
2022-11-25T17:54:18.736Z,42.47
2022-11-25T17:56:23.117Z,42.41
2022-11-25T17:58:27.532Z,42.77
2022-11-25T18:00:31.924Z,42.96
2022-11-25T18:02:36.568Z,43.42
2022-11-25T18:04:41.563Z,43.27
2022-11-25T18:06:46.060Z,43.54
2022-11-25T18:08:50.489Z,43.85
2022-11-25T18:10:54.902Z,43.69
2022-11-25T18:12:59.274Z,43.81
2022-11-25T18:15:03.661Z,43.99
2022-11-25T18:17:08.275Z,44.25
2022-11-25T18:19:12.686Z,44.54
2022-11-25T18:21:17.090Z,44.57
2022-11-25T18:23:21.673Z,44.92
2022-11-25T18:25:26.065Z,44.45
2022-11-25T18:27:30.413Z,44.65
2022-11-25T18:29:34.815Z,43.77
2022-11-25T18:31:39.217Z,43.22
2022-11-25T18:33:43.637Z,44.57
2022-11-25T18:35:48.067Z,43.87
2022-11-25T18:37:52.419Z,43.53
2022-11-25T18:39:56.816Z,43.86
2022-11-25T18:42:01.216Z,43.99
2022-11-25T18:44:05.657Z,43.98
2022-11-25T18:46:10.233Z,43.37
2022-11-25T18:48:14.579Z,43.51
2022-11-25T18:50:18.985Z,43.73
2022-11-25T18:52:23.329Z,43.65
2022-11-25T18:54:27.740Z,43.49
2022-11-25T18:56:32.096Z,43.19
2022-11-25T18:58:36.447Z,43.06
2022-11-25T19:00:40.832Z,43.05
2022-11-25T19:02:45.388Z,43.16
2022-11-25T19:04:49.783Z,43.11
2022-11-25T19:06:54.196Z,43.11
2022-11-25T19:08:58.530Z,43.25
2022-11-25T19:11:02.939Z,43.31
2022-11-25T19:13:07.280Z,41.42
2022-11-25T19:15:11.644Z,39.35
2022-11-25T19:17:21.555Z,39.29
2022-11-25T19:19:25.919Z,38.69
2022-11-25T19:21:30.357Z,38.29
2022-11-25T19:23:34.716Z,37.22
2022-11-25T19:25:39.084Z,36.67
2022-11-25T19:27:43.474Z,37.21
2022-11-25T19:29:47.858Z,36.69
2022-11-25T19:31:52.345Z,36.56
2022-11-25T19:33:56.742Z,36.59
2022-11-25T19:36:01.097Z,35.41
2022-11-25T19:38:05.526Z,36.18
2022-11-25T19:40:09.897Z,36.72
2022-11-25T19:42:14.272Z,36.99
2022-11-25T19:44:18.669Z,37.42
2022-11-25T19:47:13.537Z,37.4
2022-11-25T19:49:18.568Z,37.55
2022-11-25T19:51:22.895Z,37.59
2022-11-25T19:53:35.393Z,37.87
2022-11-25T19:55:39.777Z,37.95
2022-11-25T19:57:44.160Z,38.24
2022-11-25T19:59:48.523Z,38.49
2022-11-25T20:01:53.115Z,39.17
2022-11-25T20:03:57.579Z,39.41
2022-11-25T20:06:01.955Z,39.36
2022-11-25T20:08:06.348Z,39.26
2022-11-25T20:10:10.747Z,39.18
2022-11-25T20:12:15.460Z,39.11
2022-11-25T20:14:19.887Z,39.11
2022-11-25T20:16:24.635Z,38.88
2022-11-25T20:18:29.089Z,38.92
2022-11-25T20:20:33.591Z,39.02
2022-11-25T20:22:37.997Z,39.22
2022-11-25T20:24:42.394Z,39.5
2022-11-25T20:26:46.784Z,39.58
2022-11-25T20:28:51.165Z,39.86
2022-11-25T20:32:21.110Z,38.83
2022-11-25T20:34:25.584Z,37.72
2022-11-25T20:36:29.978Z,36.65
2022-11-25T20:38:34.379Z,37.28
2022-11-25T20:40:38.783Z,37.89
2022-11-25T20:42:43.125Z,35.83
2022-11-25T20:44:47.511Z,35.42
2022-11-25T20:46:51.859Z,36.09
2022-11-25T20:48:56.586Z,36.2
2022-11-25T20:51:01.037Z,35.27
2022-11-25T20:53:05.398Z,34.72
2022-11-25T20:55:09.786Z,35.01
2022-11-25T20:57:14.135Z,35.33
2022-11-25T20:59:18.517Z,34.9
2022-11-25T21:01:23.127Z,34.55
2022-11-25T21:03:27.543Z,33.92
2022-11-25T21:05:31.943Z,33.72
2022-11-25T21:07:36.552Z,33.34
2022-11-25T21:09:40.968Z,33.73
2022-11-25T21:11:45.395Z,33.8
2022-11-25T21:13:49.758Z,33.56
2022-11-25T21:15:54.471Z,32.74
2022-11-25T21:17:58.916Z,33.66
2022-11-25T21:20:03.357Z,33.59
2022-11-25T21:22:07.769Z,33.38
2022-11-25T21:24:12.184Z,33.24
2022-11-25T21:26:16.593Z,33.12
2022-11-25T21:28:20.961Z,33.41
2022-11-25T21:30:25.371Z,32.87
2022-11-25T21:32:29.790Z,32.92
2022-11-25T21:34:34.193Z,32.23
2022-11-25T21:36:38.616Z,32.82
2022-11-25T21:38:43.018Z,33.11
2022-11-25T21:40:47.369Z,33.13
2022-11-25T21:42:51.824Z,32.9
2022-11-25T21:44:56.181Z,33.15
2022-11-25T21:47:00.585Z,32.65
2022-11-25T21:49:04.948Z,32.5
2022-11-25T21:51:09.422Z,32.21
2022-11-25T21:53:14.064Z,32.25
2022-11-25T21:55:18.444Z,32.16
2022-11-25T21:57:22.880Z,32
2022-11-25T21:59:27.345Z,32.17
2022-11-25T22:01:31.996Z,32.13
2022-11-25T22:03:36.456Z,32.18
2022-11-25T22:05:40.813Z,32.13
2022-11-25T22:07:45.477Z,32.19
2022-11-25T22:09:49.849Z,32.35
2022-11-25T22:11:54.211Z,33.16
2022-11-25T22:13:58.613Z,33.84
2022-11-25T22:16:03.222Z,33.43
2022-11-25T22:18:07.637Z,33.3
2022-11-25T22:20:12.012Z,33.57
2022-11-25T22:22:16.406Z,33.19
2022-11-25T22:24:20.795Z,33.07
2022-11-25T22:26:25.196Z,32.7
2022-11-25T22:28:29.602Z,32.68
2022-11-25T22:30:33.963Z,32.6
2022-11-25T22:32:38.329Z,32.53
2022-11-25T22:34:42.964Z,32.44
2022-11-25T22:36:47.318Z,32.43
2022-11-25T22:38:51.736Z,32.41
2022-11-25T22:40:56.188Z,32.3
2022-11-25T22:43:00.619Z,32.41
2022-11-25T22:45:05.029Z,32.28
2022-11-25T22:47:09.396Z,32.24
2022-11-25T22:49:13.770Z,32.26
2022-11-25T22:51:18.262Z,32.31
2022-11-25T22:53:22.655Z,32.22
2022-11-25T22:55:27.064Z,32.08
2022-11-25T22:57:31.463Z,32.18
2022-11-25T22:59:35.812Z,32.17
2022-11-25T23:01:40.401Z,32.2
2022-11-25T23:03:44.774Z,32.36
2022-11-25T23:05:49.188Z,32.5
2022-11-25T23:07:53.983Z,32.54
2022-11-25T23:09:58.384Z,32.56
2022-11-25T23:12:02.770Z,32.37
2022-11-25T23:14:07.134Z,32.76
2022-11-25T23:16:11.709Z,32.63
2022-11-25T23:18:16.154Z,32.58
2022-11-25T23:20:20.526Z,32.61
2022-11-25T23:22:24.927Z,32.49
2022-11-25T23:24:29.294Z,32.6
2022-11-25T23:26:37.124Z,32.64
2022-11-25T23:28:41.480Z,32.53
2022-11-25T23:30:45.847Z,32.63
2022-11-25T23:32:50.278Z,32.8
2022-11-25T23:34:54.672Z,32.88
2022-11-25T23:36:59.109Z,32.63
2022-11-25T23:39:03.489Z,32.71
2022-11-25T23:41:07.853Z,32.96
2022-11-25T23:43:12.226Z,32.75
2022-11-25T23:45:16.621Z,32.48
2022-11-25T23:47:20.969Z,32.5
2022-11-25T23:49:25.399Z,32.47
2022-11-25T23:51:29.754Z,32.36
2022-11-25T23:53:34.202Z,32.37
2022-11-25T23:55:38.600Z,32.33
2022-11-25T23:57:43.062Z,32.46
2022-11-25T23:59:47.443Z,32.23
